Time;durP1;ratioP1;P1;durP2;ratioP2;P2;SDS_P1;SDS_P2;PMS_P1;PMS_P2;Temp;Humidity;BMP_temperature;BMP_pressure;BME280_temperature;BME280_humidity;BME280_pressure;Samples;Min_cycle;Max_cycle;Signal;HPM_P1;HPM_P2
2021/10/02 00:44:37;;;;;;;27.95;9.55;;;;;;;3.52;100.00;102569.81;1692140;83;21147;-81
2021/10/02 00:44:40;;;;;;;24.60;9.80;;;;;;;3.51;100.00;102564.16;1691064;83;21018;-81
2021/10/02 00:47:09;;;;;;;19.50;8.60;;;;;;;3.52;100.00;102568.98;1692271;83;21602;-80
2021/10/02 00:49:37;;;;;;;25.43;9.85;;;;;;;3.53;100.00;102572.83;1692370;83;21082;-81
2021/10/02 00:52:10;;;;;;;20.55;8.38;;;;;;;3.52;100.00;102570.31;1692530;83;21026;-81
2021/10/02 00:54:36;;;;;;;23.92;7.95;;;;;;;3.51;100.00;102564.16;1597600;88;22166;-80
2021/10/02 00:57:03;;;;;;;19.85;8.45;;;;;;;3.50;100.00;102561.17;1567236;91;21553;-80
2021/10/02 00:59:31;;;;;;;23.42;8.28;;;;;;;3.47;100.00;102563.30;1567284;91;21159;-80
2021/10/02 01:02:14;;;;;;;23.22;8.90;;;;;;;3.46;100.00;102566.47;1567309;91;21107;-80
2021/10/02 01:05:03;;;;;;;24.20;9.58;;;;;;;3.44;100.00;102561.80;1567700;91;21515;-80
2021/10/02 01:08:03;;;;;;;24.87;8.83;;;;;;;3.38;100.00;102560.64;1565496;91;21256;-80
2021/10/02 01:10:58;;;;;;;18.85;8.48;;;;;;;3.34;100.00;102560.62;1559142;92;21154;-80
2021/10/02 01:13:32;;;;;;;20.68;7.62;;;;;;;3.31;100.00;102567.61;1564068;91;21016;-80
2021/10/02 01:16:24;;;;;;;21.80;9.20;;;;;;;3.28;100.00;102565.77;1566946;90;21051;-80
2021/10/02 01:19:07;;;;;;;16.55;6.70;;;;;;;3.25;100.00;102560.77;1555757;92;21050;-81
2021/10/02 01:21:48;;;;;;;18.90;7.00;;;;;;;3.22;100.00;102565.09;1567647;91;21179;-80
2021/10/02 01:24:34;;;;;;;20.97;7.53;;;;;;;3.21;100.00;102568.73;1563148;91;21672;-80
2021/10/02 01:27:33;;;;;;;18.15;7.53;;;;;;;3.18;100.00;102569.41;1558754;92;21220;-80
2021/10/02 01:30:07;;;;;;;20.72;6.65;;;;;;;3.16;100.00;102571.90;1544605;92;21071;-80
2021/10/02 01:32:41;;;;;;;15.72;6.80;;;;;;;3.16;100.00;102569.23;1514471;94;21160;-80
2021/10/02 01:48:36;;;;;;;22.77;8.40;;;;;;;3.13;100.00;102563.73;1419817;101;21780;-80
2021/10/02 01:51:03;;;;;;;17.90;7.42;;;;;;;3.08;100.00;102560.70;1425368;99;21084;-80
2021/10/02 01:53:33;;;;;;;18.62;7.95;;;;;;;3.03;100.00;102558.19;1436264;99;21061;-80
2021/10/02 01:56:01;;;;;;;22.25;9.10;;;;;;;2.97;100.00;102564.98;1436042;98;21045;-80
2021/10/02 01:58:28;;;;;;;44.18;18.27;;;;;;;2.91;100.00;102566.50;1436205;98;21100;-80
2021/10/02 02:00:53;;;;;;;22.82;8.95;;;;;;;2.88;100.00;102566.81;1436297;98;21070;-80
2021/10/02 02:03:22;;;;;;;19.45;8.68;;;;;;;2.87;100.00;102571.78;1436115;99;20986;-80
2021/10/02 02:05:50;;;;;;;23.80;9.25;;;;;;;2.86;100.00;102566.63;1436094;98;21584;-80
2021/10/02 02:08:20;;;;;;;46.58;16.50;;;;;;;2.80;100.00;102568.11;1503653;94;21106;-81
2021/10/02 02:10:47;;;;;;;40.80;16.25;;;;;;;2.76;100.00;102567.23;1524432;94;21634;-81
2021/10/02 02:13:16;;;;;;;34.15;13.40;;;;;;;2.72;100.00;102562.73;1524359;94;21119;-80
2021/10/02 02:15:45;;;;;;;30.40;12.82;;;;;;;2.72;100.00;102556.08;1538292;91;20996;-80
2021/10/02 02:18:17;;;;;;;25.40;11.25;;;;;;;2.71;100.00;102562.41;1644221;86;21141;-80
2021/10/02 02:20:51;;;;;;;20.07;9.57;;;;;;;2.71;100.00;102565.90;1663661;86;21077;-80
2021/10/02 02:23:17;;;;;;;21.90;9.15;;;;;;;2.70;100.00;102560.72;1663461;86;21792;-80
2021/10/02 02:25:44;;;;;;;20.35;7.80;;;;;;;2.69;100.00;102562.55;1650009;86;22010;-80
2021/10/02 02:28:10;;;;;;;19.62;7.60;;;;;;;2.62;100.00;102549.55;1665078;85;21519;-80
2021/10/02 02:30:37;;;;;;;19.65;8.15;;;;;;;2.68;100.00;102558.23;1665289;85;21059;-80
2021/10/02 02:33:05;;;;;;;22.45;8.40;;;;;;;2.66;100.00;102556.22;1665014;85;21635;-81
2021/10/02 02:35:32;;;;;;;23.62;8.28;;;;;;;2.63;100.00;102561.86;1665421;85;21605;-80
2021/10/02 02:37:59;;;;;;;23.50;8.10;;;;;;;2.59;100.00;102559.19;1665110;85;21237;-80
2021/10/02 02:40:26;;;;;;;19.30;7.72;;;;;;;2.57;100.00;102561.66;1665401;85;21012;-80
2021/10/02 02:42:52;;;;;;;19.92;8.43;;;;;;;2.57;100.00;102561.16;1665218;85;20967;-80
2021/10/02 02:45:19;;;;;;;21.33;8.50;;;;;;;2.57;100.00;102562.49;1665247;86;20888;-80
2021/10/02 02:47:50;;;;;;;23.22;8.48;;;;;;;2.56;100.00;102567.48;1662591;86;21031;-80
2021/10/02 02:50:25;;;;;;;22.37;8.25;;;;;;;2.52;100.00;102564.78;1620753;88;21273;-80
2021/10/02 02:53:04;;;;;;;28.83;9.50;;;;;;;2.48;100.00;102565.60;1607879;89;21035;-80
2021/10/02 02:55:36;;;;;;;25.88;9.68;;;;;;;2.45;100.00;102567.25;1596586;89;21059;-80
2021/10/02 02:58:05;;;;;;;21.93;8.18;;;;;;;2.42;100.00;102565.41;1593265;89;21051;-80
2021/10/02 03:00:32;;;;;;;20.27;7.97;;;;;;;2.37;100.00;102569.02;1554417;92;21562;-81
2021/10/02 03:03:09;;;;;;;17.35;7.60;;;;;;;2.28;100.00;102566.30;1554419;92;22004;-80
2021/10/02 03:05:40;;;;;;;24.10;9.70;;;;;;;2.17;100.00;102574.53;1554366;92;21114;-80
2021/10/02 03:08:16;;;;;;;24.30;8.35;;;;;;;2.11;100.00;102573.82;1554355;92;21064;-81
2021/10/02 03:10:46;;;;;;;18.40;7.67;;;;;;;2.07;100.00;102572.97;1554606;91;21087;-81
2021/10/02 03:13:15;;;;;;;17.32;6.85;;;;;;;2.07;100.00;102567.16;1552027;92;21191;-81
2021/10/02 03:15:43;;;;;;;18.73;7.85;;;;;;;2.07;100.00;102572.48;1529691;92;22148;-81
2021/10/02 03:18:13;;;;;;;19.80;7.35;;;;;;;2.05;100.00;102573.94;1546327;92;20981;-81
2021/10/02 03:20:40;;;;;;;20.43;7.40;;;;;;;1.92;100.00;102582.83;1546190;92;21604;-81
2021/10/02 03:23:07;;;;;;;13.35;6.25;;;;;;;1.85;100.00;102580.92;1546299;92;21818;-81
2021/10/02 03:25:34;;;;;;;18.40;7.37;;;;;;;1.74;100.00;102578.85;1546383;92;21083;-81
2021/10/02 03:28:03;;;;;;;22.48;8.05;;;;;;;1.68;100.00;102583.45;1546354;92;21132;-81
2021/10/02 03:30:31;;;;;;;16.62;6.90;;;;;;;1.64;100.00;102587.88;1551184;90;21102;-82
2021/10/02 03:32:58;;;;;;;18.75;6.83;;;;;;;1.57;100.00;102585.83;1564982;89;21069;-81
2021/10/02 03:35:25;;;;;;;19.27;7.92;;;;;;;1.55;100.00;102592.27;1573604;89;21168;-81
2021/10/02 03:37:54;;;;;;;20.60;8.25;;;;;;;1.52;100.00;102582.77;1573429;89;21149;-81
2021/10/02 03:40:21;;;;;;;19.30;7.72;;;;;;;1.52;100.00;102580.12;1573252;89;21099;-81
2021/10/02 03:42:55;;;;;;;24.50;7.95;;;;;;;1.60;100.00;102587.34;1573169;89;21027;-82
2021/10/02 03:45:25;;;;;;;22.55;7.67;;;;;;;1.61;100.00;102585.52;1573627;89;21550;-81
2021/10/02 03:47:51;;;;;;;16.77;7.15;;;;;;;1.60;100.00;102584.69;1604560;87;21085;-82
2021/10/02 03:50:17;;;;;;;16.65;7.58;;;;;;;1.64;100.00;102586.55;1612606;87;21014;-81
2021/10/02 03:52:44;;;;;;;19.62;7.92;;;;;;;1.68;100.00;102586.61;1612458;87;21177;-81
2021/10/02 03:55:13;;;;;;;18.07;6.65;;;;;;;1.71;100.00;102592.45;1612465;87;21082;-81
2021/10/02 03:57:40;;;;;;;16.42;7.03;;;;;;;1.75;100.00;102588.98;1663298;83;21542;-82
2021/10/02 04:00:09;;;;;;;21.87;7.40;;;;;;;1.80;100.00;102586.72;1697207;83;21095;-82
2021/10/02 04:02:35;;;;;;;20.02;7.33;;;;;;;1.84;100.00;102586.73;1697118;83;21053;-81
2021/10/02 04:05:01;;;;;;;20.95;7.95;;;;;;;1.92;100.00;102592.13;1697279;83;21073;-82
2021/10/02 04:07:27;;;;;;;20.27;7.50;;;;;;;1.98;100.00;102593.34;1697102;83;21532;-82
2021/10/02 04:09:53;;;;;;;19.32;7.90;;;;;;;2.05;100.00;102595.72;1697180;83;21138;-82
2021/10/02 04:12:19;;;;;;;16.90;7.42;;;;;;;2.14;100.00;102595.29;1693516;83;20908;-82
2021/10/02 04:14:47;;;;;;;17.90;8.15;;;;;;;2.20;100.00;102594.17;1707451;83;20919;-82
2021/10/02 04:17:12;;;;;;;25.68;10.23;;;;;;;2.25;100.00;102598.53;1694303;82;20985;-82
2021/10/02 04:19:39;;;;;;;29.00;10.75;;;;;;;2.37;100.00;102596.95;1695067;83;22549;-82
2021/10/02 04:22:05;;;;;;;34.03;10.72;;;;;;;2.49;100.00;102595.70;1697385;83;21038;-82
2021/10/02 04:24:32;;;;;;;34.60;12.30;;;;;;;2.62;100.00;102605.95;1689884;83;21542;-81
2021/10/02 04:26:59;;;;;;;35.28;13.28;;;;;;;2.73;100.00;102599.83;1641337;86;21543;-81
2021/10/02 04:29:27;;;;;;;56.90;20.10;;;;;;;2.86;100.00;102602.58;1642274;86;21392;-82
2021/10/02 04:31:53;;;;;;;61.28;20.20;;;;;;;3.00;100.00;102601.12;1642151;85;21157;-82
2021/10/02 04:34:20;;;;;;;59.30;19.02;;;;;;;3.55;100.00;102600.64;1646919;86;21144;-82
2021/10/02 04:36:45;;;;;;;40.58;14.68;;;;;;;4.86;100.00;102593.39;1642022;85;21071;-82
2021/10/02 04:39:12;;;;;;;35.58;12.53;;;;;;;6.97;100.00;102587.06;1645077;85;20951;-81
2021/10/02 04:41:38;;;;;;;30.48;10.60;;;;;;;6.97;100.00;102587.06;1646938;85;21908;-81
2021/10/02 04:44:04;;;;;;;27.87;10.05;;;;;;;7.92;100.00;102588.23;1644339;86;20923;-81
2021/10/02 04:46:31;;;;;;;25.02;9.55;;;;;;;9.27;100.00;102583.00;1643630;86;21721;-81
2021/10/02 04:48:57;;;;;;;22.13;8.45;;;;;;;10.86;100.00;102579.52;1643024;86;21165;-82
2021/10/02 04:51:23;;;;;;;22.10;9.13;;;;;;;12.13;100.00;102580.97;1640663;86;20951;-82
2021/10/02 04:53:49;;;;;;;20.10;8.88;;;;;;;13.03;100.00;102581.81;1639408;85;21349;-83
2021/10/02 04:56:17;;;;;;;21.07;9.15;;;;;;;13.85;100.00;102573.17;1643988;85;21115;-82
2021/10/02 04:58:43;;;;;;;20.37;9.73;;;;;;;14.87;100.00;102569.29;1642111;85;21129;-81
2021/10/02 05:01:12;;;;;;;23.27;10.80;;;;;;;15.76;98.43;102580.50;1640506;85;21106;-82
2021/10/02 05:03:41;;;;;;;21.12;10.30;;;;;;;16.49;87.68;102571.03;1531927;90;21202;-81
2021/10/02 05:06:08;;;;;;;18.48;9.58;;;;;;;17.65;80.53;102569.41;1565073;89;21991;-85
2021/10/02 05:08:36;;;;;;;18.67;8.58;;;;;;;18.45;66.97;102569.48;1564430;89;22274;-84
2021/10/02 05:11:04;;;;;;;18.07;8.68;;;;;;;18.80;59.79;102566.68;1551361;89;21029;-82
2021/10/02 05:15:58;;;;;;;19.67;9.23;;;;;;;18.89;51.68;102569.17;1542767;91;21071;-83
2021/10/02 05:18:25;;;;;;;19.37;9.18;;;;;;;18.98;51.81;102566.75;1537902;92;21187;-81
2021/10/02 05:20:51;;;;;;;16.67;8.58;;;;;;;19.66;52.66;102573.47;1537763;92;21004;-82
2021/10/02 05:23:17;;;;;;;15.80;8.23;;;;;;;20.14;49.01;102569.34;1537989;92;20985;-81
2021/10/02 05:25:43;;;;;;;16.52;7.85;;;;;;;20.51;46.90;102570.09;1518711;92;21146;-82
2021/10/02 05:28:10;;;;;;;16.15;7.65;;;;;;;20.79;46.34;102565.90;1538024;92;21163;-82
2021/10/02 05:30:36;;;;;;;12.78;6.78;;;;;;;20.78;44.20;102565.09;1538114;92;21161;-81
2021/10/02 05:33:03;;;;;;;10.30;6.87;;;;;;;20.69;42.85;102566.77;1538255;92;21168;-82
2021/10/02 05:35:31;;;;;;;10.20;6.47;;;;;;;20.38;42.76;102559.16;1537681;92;21085;-82
2021/10/02 05:37:58;;;;;;;13.60;6.55;;;;;;;20.64;42.66;102564.04;1538021;92;21129;-82
2021/10/02 05:40:24;;;;;;;15.28;7.08;;;;;;;20.47;42.56;102564.89;1537887;92;21142;-81
2021/10/02 05:42:50;;;;;;;11.73;6.70;;;;;;;20.79;42.78;102565.34;1538037;92;21882;-82
2021/10/02 05:45:16;;;;;;;13.48;6.40;;;;;;;21.67;43.06;102557.44;1537961;92;21057;-82
2021/10/02 05:47:42;;;;;;;12.00;6.30;;;;;;;22.42;40.30;102565.27;1538083;92;20957;-82
2021/10/02 05:50:08;;;;;;;14.58;6.50;;;;;;;22.35;38.50;102570.28;1538075;92;21008;-82
2021/10/02 05:52:34;;;;;;;10.38;5.70;;;;;;;22.45;41.00;102571.56;1537950;92;21758;-81
2021/10/02 05:55:00;;;;;;;14.43;6.45;;;;;;;23.18;38.66;102565.42;1638914;86;21190;-82
2021/10/02 05:57:26;;;;;;;12.20;5.78;;;;;;;23.95;38.65;102564.50;1652785;86;21123;-82
2021/10/02 05:59:52;;;;;;;10.15;6.03;;;;;;;24.20;36.57;102567.90;1652574;86;21083;-82
2021/10/02 06:02:18;;;;;;;15.05;6.92;;;;;;;24.35;35.39;102564.84;1652569;85;20934;-82
2021/10/02 06:04:44;;;;;;;10.35;6.47;;;;;;;24.71;35.44;102568.31;1630316;86;21815;-83
2021/10/02 06:07:10;;;;;;;14.07;7.20;;;;;;;24.79;34.08;102562.05;1652757;86;21365;-83
2021/10/02 06:09:36;;;;;;;15.35;7.87;;;;;;;24.30;32.91;102569.66;1652484;86;20910;-83
2021/10/02 06:12:02;;;;;;;15.43;8.45;;;;;;;24.29;34.16;102568.82;1652876;85;21562;-83
2021/10/02 06:14:33;;;;;;;14.10;7.62;;;;;;;24.47;32.19;102572.10;1652602;85;21048;-83
2021/10/02 06:16:59;;;;;;;12.95;7.25;;;;;;;23.78;32.55;102565.06;1624216;86;21048;-83
2021/10/02 06:19:25;;;;;;;17.67;8.08;;;;;;;23.77;32.48;102564.00;1655070;85;21622;-83
2021/10/02 06:21:51;;;;;;;11.93;7.03;;;;;;;24.25;32.49;102563.11;1666840;84;20995;-83
2021/10/02 06:24:17;;;;;;;15.80;7.30;;;;;;;24.49;30.94;102558.00;1666617;84;20917;-83
2021/10/02 06:26:44;;;;;;;13.40;6.75;;;;;;;24.48;31.94;102556.38;1667122;84;21072;-85
2021/10/02 06:29:11;;;;;;;14.18;6.30;;;;;;;24.32;31.00;102559.13;1667018;84;21505;-85
2021/10/02 06:31:37;;;;;;;15.08;6.78;;;;;;;24.75;30.22;102559.67;1666997;84;21095;-83
2021/10/02 06:34:04;;;;;;;14.80;5.65;;;;;;;24.60;30.25;102556.67;1665897;84;21029;-83
2021/10/02 06:36:30;;;;;;;12.18;6.20;;;;;;;24.94;29.47;102555.39;1666390;84;21070;-84
2021/10/02 06:38:59;;;;;;;15.10;6.25;;;;;;;24.99;28.46;102556.66;1657416;84;21111;-84
2021/10/02 06:41:26;;;;;;;14.23;6.25;;;;;;;24.57;27.90;102560.61;1639545;86;21060;-82
2021/10/02 06:43:52;;;;;;;13.88;5.80;;;;;;;23.98;28.65;102555.63;1650706;84;21088;-81
2021/10/02 06:46:18;;;;;;;13.18;5.83;;;;;;;24.26;29.91;102550.95;1639543;86;21020;-83
2021/10/02 06:48:44;;;;;;;9.78;5.62;;;;;;;25.02;27.90;102557.98;1639599;86;20989;-82
2021/10/02 06:51:10;;;;;;;10.28;4.97;;;;;;;24.52;27.12;102548.30;1639540;86;20892;-82
2021/10/02 06:53:36;;;;;;;8.43;5.03;;;;;;;24.35;28.58;102553.81;1639576;86;20948;-83
2021/10/02 06:56:04;;;;;;;10.53;5.47;;;;;;;24.52;28.04;102552.44;1639478;86;21986;-82
2021/10/02 06:58:32;;;;;;;10.30;5.17;;;;;;;25.00;28.56;102550.57;1650503;86;21107;-81
2021/10/02 07:00:58;;;;;;;9.08;5.30;;;;;;;24.86;27.19;102549.24;1666466;84;21032;-82
2021/10/02 07:03:24;;;;;;;17.65;5.55;;;;;;;24.06;26.97;102542.27;1652898;85;21665;-84
2021/10/02 07:05:52;;;;;;;10.40;5.92;;;;;;;23.71;27.37;102544.56;1646903;84;21485;-80
2021/10/02 07:08:18;;;;;;;7.83;4.95;;;;;;;23.86;28.17;102545.66;1666361;84;21519;-83
2021/10/02 07:13:28;;;;;;;9.38;5.20;;;;;;;24.39;27.20;102540.27;1482944;94;21155;-82
2021/10/02 07:15:54;;;;;;;9.03;5.17;;;;;;;24.57;27.92;102537.98;1521428;90;20999;-82
2021/10/02 07:18:20;;;;;;;10.55;4.78;;;;;;;24.87;27.14;102529.61;1556158;90;21504;-81
2021/10/02 07:20:46;;;;;;;8.73;4.35;;;;;;;25.49;26.73;102531.77;1556132;90;21756;-82
2021/10/02 07:23:13;;;;;;;9.78;4.00;;;;;;;25.63;25.92;102535.05;1556244;90;20904;-82
2021/10/02 07:25:40;;;;;;;9.83;4.12;;;;;;;25.20;24.63;102528.06;1555840;90;21102;-82
2021/10/02 07:28:06;;;;;;;13.55;4.15;;;;;;;24.33;24.93;102531.84;1555938;90;21118;-80
2021/10/02 07:30:32;;;;;;;9.35;3.58;;;;;;;24.02;25.08;102539.30;1556291;90;20984;-81
2021/10/02 07:32:58;;;;;;;6.08;3.65;;;;;;;24.07;25.88;102529.58;1556122;90;21873;-80
2021/10/02 07:35:23;;;;;;;6.62;4.25;;;;;;;24.19;26.03;102524.38;1556209;90;20963;-80
2021/10/02 07:37:50;;;;;;;8.80;3.80;;;;;;;24.42;25.52;102524.50;1572415;88;20955;-80
2021/10/02 07:40:18;;;;;;;10.80;3.80;;;;;;;24.00;25.11;102512.08;1587925;90;21144;-79
2021/10/02 07:42:51;;;;;;;17.10;4.28;;;;;;;23.88;25.76;102514.48;1587837;88;21110;-80
2021/10/02 07:45:22;;;;;;;8.65;3.42;;;;;;;23.96;25.24;102512.41;1566307;88;21353;-80
2021/10/02 07:47:52;;;;;;;14.00;5.62;;;;;;;23.69;26.69;102505.45;1631017;84;21044;-81
2021/10/02 07:50:20;;;;;;;12.00;5.00;;;;;;;24.24;25.36;102506.94;1681071;84;21068;-82
2021/10/02 07:52:46;;;;;;;13.62;4.37;;;;;;;24.16;25.15;102495.25;1681012;84;21025;-81
2021/10/02 07:55:15;;;;;;;15.93;6.95;;;;;;;24.57;25.31;102500.77;1677118;84;21646;-82
2021/10/02 07:57:45;;;;;;;12.28;5.37;;;;;;;24.44;25.13;102499.67;1678227;85;21439;-82
2021/10/02 08:00:16;;;;;;;20.77;3.72;;;;;;;24.82;24.96;102488.34;1681169;84;21072;-83
2021/10/02 08:02:45;;;;;;;15.58;6.92;;;;;;;24.31;23.56;102492.75;1681357;84;21062;-83
2021/10/02 08:05:12;;;;;;;20.90;3.60;;;;;;;23.96;24.37;102495.89;1681413;84;20996;-81
2021/10/02 08:07:42;;;;;;;6.33;3.25;;;;;;;23.43;24.80;102490.75;1681264;84;21099;-82
2021/10/02 08:10:10;;;;;;;11.48;3.55;;;;;;;23.65;25.01;102491.48;1681138;84;21239;-82
2021/10/02 08:12:36;;;;;;;5.62;2.98;;;;;;;23.65;25.04;102489.27;1680880;84;21056;-83
2021/10/02 08:15:04;;;;;;;6.75;3.50;;;;;;;23.74;25.46;102486.13;1681163;84;21091;-82
2021/10/02 08:17:33;;;;;;;13.15;2.98;;;;;;;24.19;25.12;102487.75;1691292;83;21026;-82
2021/10/02 08:20:08;;;;;;;10.45;3.15;;;;;;;24.56;24.48;102484.52;1694980;83;22102;-82
2021/10/02 08:22:41;;;;;;;26.77;5.17;;;;;;;23.98;24.08;102476.31;1694915;83;21227;-83
2021/10/02 08:25:10;;;;;;;22.37;5.17;;;;;;;23.68;24.34;102473.52;1694795;83;21113;-83
2021/10/02 08:27:37;;;;;;;58.08;18.17;;;;;;;23.56;24.52;102475.41;1695075;84;21018;-83
2021/10/02 08:30:08;;;;;;;16.20;6.37;;;;;;;23.63;24.79;102480.52;1695100;83;21049;-82
2021/10/02 08:32:35;;;;;;;6.78;3.00;;;;;;;23.90;24.64;102470.94;1695155;84;21511;-81
2021/10/02 08:35:06;;;;;;;22.10;10.20;;;;;;;24.34;24.47;102460.44;1694981;83;21105;-82
2021/10/02 08:37:32;;;;;;;15.78;5.85;;;;;;;24.48;23.85;102448.88;1694900;83;21011;-85
2021/10/02 08:39:58;;;;;;;8.38;2.67;;;;;;;24.22;23.88;102458.20;1695060;83;21062;-83
2021/10/02 08:42:25;;;;;;;9.58;2.95;;;;;;;24.07;23.05;102462.09;1695099;83;21020;-83
2021/10/02 08:44:54;;;;;;;6.10;2.83;;;;;;;23.85;23.26;102461.39;1694947;83;21046;-82
2021/10/02 08:47:24;;;;;;;5.92;2.60;;;;;;;23.86;23.52;102464.42;1694949;83;21094;-84
2021/10/02 08:49:51;;;;;;;3.95;2.50;;;;;;;23.69;23.81;102452.58;1668235;83;21455;-84
2021/10/02 08:52:22;;;;;;;7.87;3.10;;;;;;;23.52;23.12;102461.41;1694977;83;21090;-83
2021/10/02 08:54:50;;;;;;;19.45;6.70;;;;;;;23.16;23.85;102463.14;1694758;83;21122;-83
2021/10/02 08:57:23;;;;;;;14.13;5.28;;;;;;;22.94;23.14;102454.90;1694955;83;21558;-84
2021/10/02 08:59:56;;;;;;;5.75;3.10;;;;;;;22.83;24.01;102446.56;1694853;83;21856;-83
2021/10/02 09:02:24;;;;;;;10.18;3.37;;;;;;;22.75;24.53;102454.10;1695031;83;21142;-83
2021/10/02 09:04:51;;;;;;;14.23;4.53;;;;;;;22.87;24.41;102442.09;1694612;83;21061;-83
2021/10/02 09:07:20;;;;;;;22.85;11.25;;;;;;;22.73;25.00;102457.70;1694984;83;21067;-83
2021/10/02 09:09:49;;;;;;;24.95;6.08;;;;;;;22.54;25.07;102442.02;1694635;83;21018;-83
2021/10/02 09:12:20;;;;;;;13.38;6.15;;;;;;;22.55;25.10;102436.77;1623104;88;21279;-83
2021/10/02 09:14:46;;;;;;;9.15;4.28;;;;;;;22.26;25.02;102453.92;1622833;88;21093;-83
2021/10/02 09:17:13;;;;;;;9.50;3.10;;;;;;;22.00;25.57;102448.16;1619277;88;21150;-82
2021/10/02 09:19:39;;;;;;;12.33;4.87;;;;;;;21.95;25.60;102432.30;1616606;88;21567;-83
2021/10/02 09:22:09;;;;;;;18.75;5.83;;;;;;;21.68;25.68;102432.30;1616952;88;21154;-85
2021/10/02 09:24:40;;;;;;;8.95;3.70;;;;;;;21.17;26.03;102439.57;1616537;88;21907;-83
2021/10/02 09:27:20;;;;;;;10.53;3.52;;;;;;;20.95;26.55;102437.28;1616539;88;21075;-82
2021/10/02 09:29:56;;;;;;;11.03;4.47;;;;;;;20.94;26.60;102437.55;1614284;87;21082;-87
2021/10/02 09:32:29;;;;;;;22.10;8.63;;;;;;;21.06;27.13;102443.48;1507750;93;21079;-81
2021/10/02 09:34:59;;;;;;;7.90;3.42;;;;;;;20.95;26.09;102429.62;1508031;93;21107;-82
2021/10/02 09:37:31;;;;;;;8.70;2.40;;;;;;;20.46;26.26;102434.53;1508259;93;21118;-83
2021/10/02 09:40:20;;;;;;;9.60;3.40;;;;;;;20.10;26.60;102425.10;1505226;94;21219;-82
2021/10/02 09:42:53;;;;;;;8.80;2.87;;;;;;;19.93;26.99;102419.39;1507713;93;21607;-81
2021/10/02 09:45:25;;;;;;;6.22;3.08;;;;;;;19.56;27.41;102421.11;1508157;93;21554;-82
2021/10/02 09:48:00;;;;;;;5.83;2.50;;;;;;;19.36;27.90;102428.77;1507964;95;21062;-82
2021/10/02 09:50:30;;;;;;;6.72;2.30;;;;;;;18.95;26.31;102417.82;1507890;93;22682;-82
2021/10/02 09:53:03;;;;;;;6.33;2.98;;;;;;;18.65;27.31;102412.25;1489318;95;21156;-81
2021/10/02 09:55:33;;;;;;;8.55;3.22;;;;;;;18.34;28.42;102412.17;1505872;93;21054;-82
2021/10/02 09:58:07;;;;;;;3.83;2.30;;;;;;;18.15;28.90;102416.75;1507445;93;21186;-83
2021/10/02 10:00:38;;;;;;;4.90;2.40;;;;;;;17.97;29.13;102411.76;1527948;92;21066;-83
2021/10/02 10:03:08;;;;;;;7.70;2.30;;;;;;;17.81;29.55;102401.84;1527890;92;21177;-84
2021/10/02 10:05:42;;;;;;;7.08;2.52;;;;;;;17.51;29.33;102409.25;1527858;93;21597;-84
2021/10/02 10:08:12;;;;;;;6.45;2.60;;;;;;;17.20;29.65;102403.00;1527596;93;21117;-83
2021/10/02 10:10:41;;;;;;;14.87;2.98;;;;;;;16.78;30.08;102399.63;1573534;89;21124;-84
2021/10/02 10:13:21;;;;;;;5.70;2.77;;;;;;;16.53;30.06;102392.52;1580732;90;21597;-83
2021/10/02 10:15:50;;;;;;;5.47;2.65;;;;;;;16.34;30.66;102398.31;1580421;90;21222;-84
2021/10/02 10:18:30;;;;;;;4.03;1.77;;;;;;;16.22;30.20;102392.72;1582162;89;21068;-83
2021/10/02 10:21:00;;;;;;;11.05;2.40;;;;;;;16.12;30.57;102383.91;1582789;90;21037;-84
2021/10/02 10:23:43;;;;;;;6.00;2.20;;;;;;;16.11;30.49;102391.77;1583004;89;21057;-85
2021/10/02 10:26:16;;;;;;;9.78;2.35;;;;;;;16.06;31.19;102384.89;1583237;90;21565;-83
2021/10/02 10:28:47;;;;;;;6.92;2.90;;;;;;;15.95;31.74;102388.04;1542852;93;21184;-90
2021/10/02 10:31:20;;;;;;;8.95;3.80;;;;;;;15.91;30.43;102380.08;1460114;98;21133;-84
2021/10/02 10:33:49;;;;;;;;;;;;;;;15.91;30.43;102380.08;1462355;97;21081;-85
2021/10/02 10:36:16;;;;;;;21.15;6.85;;;;;;;15.92;30.79;102379.02;1460195;98;20222;-86
2021/10/02 10:38:43;;;;;;;5.60;2.55;;;;;;;15.94;31.10;102373.31;1459930;97;21158;-83
2021/10/02 10:41:12;;;;;;;11.68;4.55;;;;;;;16.01;31.37;102372.61;1459905;97;21038;-83
2021/10/02 10:43:39;;;;;;;7.28;2.10;;;;;;;16.04;31.11;102373.47;1459935;98;21117;-83
2021/10/02 10:46:09;;;;;;;5.28;1.70;;;;;;;15.96;30.60;102372.54;1447477;98;21110;-83
2021/10/02 10:48:36;;;;;;;6.70;2.00;;;;;;;15.95;29.93;102365.47;1439270;99;21157;-84
2021/10/02 10:51:09;;;;;;;7.42;2.75;;;;;;;15.98;30.54;102364.95;1429898;98;21180;-83
2021/10/02 10:53:45;;;;;;;8.85;2.95;;;;;;;16.01;30.80;102363.09;1424342;99;21154;-85
2021/10/02 10:56:16;;;;;;;9.60;2.62;;;;;;;16.10;31.38;102356.13;1424549;100;21546;-83
2021/10/02 10:58:42;;;;;;;6.90;2.20;;;;;;;16.22;31.73;102351.38;1383252;103;21662;-83
2021/10/02 11:01:11;;;;;;;5.62;1.90;;;;;;;16.37;31.00;102356.71;1384519;100;21139;-83
2021/10/02 11:03:46;;;;;;;11.30;2.70;;;;;;;16.43;30.94;102361.94;1455072;98;21124;-83
2021/10/02 11:06:18;;;;;;;8.23;2.40;;;;;;;16.47;30.93;102345.92;1456655;98;21292;-82
2021/10/02 11:09:07;;;;;;;9.78;2.42;;;;;;;16.58;31.27;102349.03;1472236;97;21158;-85
2021/10/02 11:11:53;;;;;;;8.38;2.20;;;;;;;16.65;29.87;102351.03;1472555;97;21145;-83
2021/10/02 11:14:59;;;;;;;8.55;2.25;;;;;;;16.59;29.03;102352.06;1472561;97;21620;-84
2021/10/02 11:17:35;;;;;;;4.85;2.40;;;;;;;16.56;29.87;102332.98;1465298;96;21555;-84
2021/10/02 11:20:30;;;;;;;6.50;2.08;;;;;;;16.56;29.87;102332.98;1450984;98;21231;-85
2021/10/02 11:23:41;;;;;;;6.45;2.00;;;;;;;16.54;29.78;102344.65;1455310;98;21133;-85
2021/10/02 11:26:24;;;;;;;3.12;1.90;;;;;;;16.48;29.40;102340.23;1519873;91;21066;-84
2021/10/02 11:29:02;;;;;;;5.55;2.08;;;;;;;16.45;29.91;102339.94;1554475;90;22272;-84
2021/10/02 11:31:32;;;;;;;5.20;2.40;;;;;;;16.47;29.98;102336.39;1557316;91;21063;-85
2021/10/02 11:34:00;;;;;;;4.22;1.90;;;;;;;16.45;30.42;102316.80;1556140;90;21397;-86
2021/10/02 11:36:35;;;;;;;4.20;2.08;;;;;;;16.45;30.42;102316.80;1557367;90;21124;-84
2021/10/02 11:39:28;;;;;;;5.85;2.15;;;;;;;16.64;31.01;102331.67;1557591;90;21642;-84
2021/10/02 11:41:59;;;;;;;6.72;2.10;;;;;;;16.82;30.84;102324.23;1557307;90;21019;-84
2021/10/02 11:44:49;;;;;;;8.23;2.15;;;;;;;16.97;29.99;102327.08;1557613;90;21063;-84
2021/10/02 11:47:45;;;;;;;5.28;2.27;;;;;;;17.04;30.14;102323.61;1557008;90;21238;-84
2021/10/02 11:50:14;;;;;;;12.05;2.83;;;;;;;17.03;29.82;102316.53;1554484;90;21433;-85
2021/10/02 11:52:46;;;;;;;4.78;1.87;;;;;;;17.07;28.57;102323.09;1557189;90;21095;-83
2021/10/02 11:55:40;;;;;;;7.95;2.60;;;;;;;17.10;30.58;102308.13;1591436;84;21034;-84
2021/10/02 11:58:15;;;;;;;7.75;2.45;;;;;;;17.10;30.58;102308.13;1666680;84;21101;-84
2021/10/02 12:00:58;;;;;;;8.55;2.80;;;;;;;17.24;28.95;102310.69;1662836;84;21042;-84
2021/10/02 12:03:33;;;;;;;12.63;2.47;;;;;;;17.24;28.95;102310.69;1641278;87;21101;-83
2021/10/02 12:06:06;;;;;;;8.00;2.33;;;;;;;17.18;29.47;102304.37;1641416;87;21531;-85
2021/10/02 12:08:32;;;;;;;8.98;2.40;;;;;;;17.28;28.79;102315.06;1640617;87;21036;-89
2021/10/02 12:11:10;;;;;;;33.70;5.17;;;;;;;17.31;29.10;102316.72;1640695;87;21084;-90
2021/10/02 12:13:53;;;;;;;7.35;2.05;;;;;;;17.45;29.41;102313.81;1641109;87;21117;-87
2021/10/02 12:16:29;;;;;;;12.40;2.98;;;;;;;17.47;29.74;102314.89;1641267;87;21031;-91
2021/10/02 12:19:05;;;;;;;4.58;1.80;;;;;;;17.47;28.65;102309.44;1586963;88;21061;-85
2021/10/02 12:21:57;;;;;;;5.60;2.05;;;;;;;17.39;28.92;102308.59;1585407;89;21100;-85
2021/10/02 12:24:30;;;;;;;6.50;2.30;;;;;;;17.29;28.47;102312.61;1538872;91;21588;-85
2021/10/02 12:27:06;;;;;;;7.08;1.82;;;;;;;17.12;28.77;102311.39;1538894;91;27379;-85
2021/10/02 12:29:40;;;;;;;14.80;2.58;;;;;;;17.01;28.88;102310.52;1538589;91;21131;-84
2021/10/02 12:32:10;;;;;;;10.30;2.35;;;;;;;16.93;29.47;102312.35;1496752;94;21063;-84
2021/10/02 12:34:46;;;;;;;12.88;2.15;;;;;;;16.86;29.54;102306.31;1496819;94;21668;-84